Time;durP1;ratioP1;P1;durP2;ratioP2;P2;SDS_P1;SDS_P2;PMS_P1;PMS_P2;Temp;Humidity;BMP_temperature;BMP_pressure;BME280_temperature;BME280_humidity;BME280_pressure;Samples;Min_cycle;Max_cycle;Signal;HPM_P1;HPM_P2
2023/06/03 00:01:34;;;;;;;5.47;2.45;;;;;;;20.97;37.93;101761.97;5017579;28;20049;-57
2023/06/03 00:03:59;;;;;;;6.13;1.92;;;;;;;20.87;37.85;101767.63;5026302;28;20124;-57
2023/06/03 00:06:25;;;;;;;3.95;2.10;;;;;;;20.84;37.70;101772.56;5022303;28;20053;-57
2023/06/03 00:08:50;;;;;;;6.93;1.70;;;;;;;20.78;37.89;101763.19;5023665;28;20405;-57
2023/06/03 00:11:16;;;;;;;7.00;2.28;;;;;;;20.74;37.50;101766.47;5024412;28;20083;-57
2023/06/03 00:13:41;;;;;;;7.07;2.25;;;;;;;20.68;37.79;101762.56;5021240;28;20080;-57
2023/06/03 00:16:06;;;;;;;5.70;2.30;;;;;;;20.64;38.13;101765.75;5021692;28;20037;-57
2023/06/03 00:18:32;;;;;;;9.63;2.55;;;;;;;20.60;37.95;101769.88;5023131;28;20044;-57
2023/06/03 00:20:58;;;;;;;4.97;2.63;;;;;;;20.57;37.99;101764.75;5021862;28;20044;-57
2023/06/03 00:23:23;;;;;;;10.43;2.90;;;;;;;20.32;38.29;101732.09;5022032;28;20056;-57
2023/06/03 00:25:49;;;;;;;8.88;2.70;;;;;;;20.47;38.04;101769.50;5014475;28;20034;-57
2023/06/03 00:28:15;;;;;;;10.32;4.20;;;;;;;20.44;38.50;101764.41;5024668;28;20033;-57
2023/06/03 00:30:40;;;;;;;6.07;2.88;;;;;;;20.39;37.95;101766.78;5013701;28;20080;-57
2023/06/03 00:33:05;;;;;;;7.47;2.78;;;;;;;20.35;38.51;101776.34;5013875;28;20025;-57
2023/06/03 00:35:32;;;;;;;4.70;2.08;;;;;;;20.28;38.20;101771.56;5013460;28;20121;-57
2023/06/03 00:37:58;;;;;;;5.45;2.33;;;;;;;20.25;38.56;101776.50;5021961;28;20501;-57
2023/06/03 00:40:23;;;;;;;3.45;2.15;;;;;;;20.23;38.37;101773.06;5016045;28;20045;-57
2023/06/03 00:42:49;;;;;;;5.45;2.60;;;;;;;20.18;38.53;101773.53;5013298;28;20050;-57
2023/06/03 00:45:14;;;;;;;4.63;2.40;;;;;;;20.14;38.25;101766.75;4995872;28;20032;-57
2023/06/03 00:47:39;;;;;;;3.83;2.15;;;;;;;20.09;38.57;101766.41;5013019;28;20486;-57
2023/06/03 00:50:06;;;;;;;6.05;2.25;;;;;;;20.03;38.84;101768.94;5013368;28;20088;-57
2023/06/03 00:52:32;;;;;;;16.48;2.97;;;;;;;19.96;38.92;101766.03;5013228;28;20022;-57
2023/06/03 00:54:58;;;;;;;4.85;2.15;;;;;;;19.93;38.98;101757.38;5013421;28;20045;-57
2023/06/03 00:57:23;;;;;;;7.07;2.80;;;;;;;19.89;38.49;101765.00;5013289;28;20026;-57
2023/06/03 00:59:49;;;;;;;5.32;2.70;;;;;;;19.87;38.72;101771.63;5011742;28;20045;-57
2023/06/03 01:02:14;;;;;;;4.40;2.25;;;;;;;19.84;39.01;101764.66;5012798;28;20120;-57
2023/06/03 01:04:42;;;;;;;6.20;2.67;;;;;;;19.81;39.26;101770.44;5012995;28;20037;-57
2023/06/03 01:07:28;;;;;;;7.90;2.80;;;;;;;19.76;38.86;101753.78;5013142;28;20034;-57
2023/06/03 01:10:05;;;;;;;6.43;2.42;;;;;;;19.73;39.37;101754.09;5013120;28;20029;-57
2023/06/03 01:12:50;;;;;;;8.52;2.35;;;;;;;19.67;39.01;101760.19;5013224;28;20029;-57
2023/06/03 01:15:21;;;;;;;4.78;2.75;;;;;;;19.61;39.18;101760.84;5013370;28;20056;-57
2023/06/03 01:17:48;;;;;;;3.67;2.45;;;;;;;19.56;39.12;101758.66;5012914;28;20042;-57
2023/06/03 01:20:15;;;;;;;9.40;2.88;;;;;;;19.51;39.20;101755.56;5011626;28;20041;-56
2023/06/03 01:22:41;;;;;;;5.80;3.00;;;;;;;19.49;38.81;101754.00;5013322;28;20040;-56
2023/06/03 01:25:11;;;;;;;8.02;2.25;;;;;;;19.45;39.16;101758.09;5012589;28;20038;-56
2023/06/03 01:27:38;;;;;;;4.90;3.00;;;;;;;19.43;39.33;101762.84;5014367;28;20029;-57
2023/06/03 01:30:09;;;;;;;5.43;2.67;;;;;;;19.39;39.29;101753.31;5016965;28;20022;-56
2023/06/03 01:32:36;;;;;;;10.02;3.15;;;;;;;19.17;38.98;101725.69;5016750;28;20117;-59
2023/06/03 01:35:02;;;;;;;7.35;3.67;;;;;;;19.35;39.25;101757.31;5015193;28;20054;-59
2023/06/03 01:37:28;;;;;;;8.63;3.13;;;;;;;19.32;39.51;101752.25;5016597;28;20048;-59
2023/06/03 01:39:54;;;;;;;11.30;2.90;;;;;;;19.31;39.90;101758.66;5015150;28;20026;-56
2023/06/03 01:42:20;;;;;;;7.97;2.80;;;;;;;19.26;40.10;101751.03;5016289;28;20109;-56
2023/06/03 01:44:45;;;;;;;5.35;2.72;;;;;;;19.25;40.19;101762.03;5016277;28;20466;-57
2023/06/03 01:47:11;;;;;;;7.18;2.78;;;;;;;19.25;40.21;101764.75;5015130;28;20041;-57
2023/06/03 01:49:36;;;;;;;5.30;2.60;;;;;;;19.22;40.28;101754.22;5016378;28;20038;-57
2023/06/03 01:52:02;;;;;;;9.45;2.72;;;;;;;19.19;39.92;101755.38;5016470;28;20038;-57
2023/06/03 01:54:28;;;;;;;10.60;2.92;;;;;;;19.15;39.76;101759.47;5016512;28;20232;-57
2023/06/03 01:56:55;;;;;;;6.40;2.97;;;;;;;19.08;40.10;101759.25;5016086;28;20033;-57
2023/06/03 01:59:23;;;;;;;8.13;2.72;;;;;;;19.07;39.31;101756.66;5016091;28;20117;-57
2023/06/03 02:01:52;;;;;;;6.95;2.65;;;;;;;19.04;39.72;101763.28;5016970;28;20046;-57
2023/06/03 02:04:17;;;;;;;4.57;2.55;;;;;;;19.05;39.90;101756.00;5016181;28;20121;-57
2023/06/03 02:06:53;;;;;;;9.02;3.05;;;;;;;19.01;39.66;101752.75;5015942;28;20036;-57
2023/06/03 02:09:27;;;;;;;8.00;3.05;;;;;;;19.07;40.28;101752.09;5015008;28;20144;-57
2023/06/03 02:11:53;;;;;;;7.45;3.22;;;;;;;19.07;40.16;101757.53;5015758;28;20029;-57
2023/06/03 02:14:18;;;;;;;12.05;3.20;;;;;;;19.09;40.67;101754.66;5000675;28;20108;-57
2023/06/03 02:16:44;;;;;;;8.00;2.78;;;;;;;19.08;40.89;101745.66;4996091;28;20036;-57
2023/06/03 02:19:19;;;;;;;9.23;3.28;;;;;;;19.09;40.78;101755.53;5000240;28;20101;-57
2023/06/03 02:21:46;;;;;;;5.72;2.67;;;;;;;19.08;40.71;101753.81;5015758;28;20025;-57
2023/06/03 02:24:14;;;;;;;7.20;2.60;;;;;;;19.07;40.54;101745.81;5014745;28;20053;-57
2023/06/03 02:26:49;;;;;;;11.70;3.15;;;;;;;19.06;41.20;101747.69;5016392;28;20037;-59
2023/06/03 02:29:29;;;;;;;7.68;2.80;;;;;;;19.04;41.09;101751.56;5014304;28;20030;-57
2023/06/03 02:31:55;;;;;;;8.88;2.78;;;;;;;19.01;40.92;101758.16;5015737;28;20512;-58
2023/06/03 02:34:21;;;;;;;11.43;2.55;;;;;;;19.00;40.77;101761.06;5014116;28;20048;-58
2023/06/03 02:36:46;;;;;;;5.90;2.60;;;;;;;18.99;41.61;101765.63;5015675;28;20029;-58
2023/06/03 02:39:13;;;;;;;7.00;2.72;;;;;;;18.98;41.37;101753.06;5015195;28;20036;-58
2023/06/03 02:41:40;;;;;;;6.07;2.88;;;;;;;18.97;40.44;101756.81;5014191;28;20053;-57
2023/06/03 02:44:06;;;;;;;10.57;2.90;;;;;;;18.95;41.02;101753.41;5015236;28;20041;-58
2023/06/03 02:46:31;;;;;;;10.57;3.17;;;;;;;18.92;41.43;101759.16;5015109;28;20038;-57
2023/06/03 02:48:57;;;;;;;7.35;2.88;;;;;;;18.89;40.62;101751.34;5018307;28;20045;-58
2023/06/03 02:51:23;;;;;;;6.05;3.20;;;;;;;18.87;41.43;101756.03;5014858;28;20030;-57
2023/06/03 02:53:49;;;;;;;8.60;3.13;;;;;;;18.82;41.51;101757.53;5015619;28;20042;-58
2023/06/03 02:56:14;;;;;;;7.03;2.45;;;;;;;18.78;41.08;101762.47;5014134;28;20053;-57
2023/06/03 02:58:40;;;;;;;9.07;3.58;;;;;;;18.76;41.55;101764.47;5015883;28;20493;-58
2023/06/03 03:01:05;;;;;;;5.13;3.00;;;;;;;18.58;41.45;101740.09;5015140;28;20120;-58
2023/06/03 03:03:36;;;;;;;5.05;2.83;;;;;;;18.71;40.65;101771.38;5014439;28;20021;-58
2023/06/03 03:06:03;;;;;;;11.25;3.03;;;;;;;18.64;41.13;101771.19;5013532;28;20516;-58
2023/06/03 03:08:29;;;;;;;7.78;2.83;;;;;;;18.59;41.09;101768.09;5014547;28;20041;-58
2023/06/03 03:10:55;;;;;;;5.03;3.00;;;;;;;18.57;41.30;101778.22;5014677;28;20041;-58
2023/06/03 03:13:20;;;;;;;8.77;3.28;;;;;;;18.52;42.17;101772.44;5014809;28;20042;-58
2023/06/03 03:15:46;;;;;;;8.48;3.42;;;;;;;18.49;41.41;101784.44;5014474;28;20028;-57
2023/06/03 03:18:11;;;;;;;9.27;2.97;;;;;;;18.46;41.62;101779.31;5015102;28;20029;-58
2023/06/03 03:20:36;;;;;;;7.80;3.33;;;;;;;18.45;41.63;101783.00;5014596;28;20563;-58
2023/06/03 03:23:02;;;;;;;6.05;2.95;;;;;;;18.46;41.25;101775.72;5013112;28;20037;-57
2023/06/03 03:25:28;;;;;;;7.80;2.95;;;;;;;18.45;41.26;101776.75;5014632;28;20065;-58
2023/06/03 03:27:53;;;;;;;11.63;3.33;;;;;;;18.45;42.12;101782.19;5014691;28;20386;-58
2023/06/03 03:30:19;;;;;;;7.65;3.03;;;;;;;18.41;41.56;101780.78;5015152;28;20508;-58
2023/06/03 03:32:44;;;;;;;4.05;2.33;;;;;;;18.35;42.14;101776.84;5014398;28;20497;-57
2023/06/03 03:35:11;;;;;;;8.70;2.80;;;;;;;18.27;41.10;101779.47;5014288;28;20553;-58
2023/06/03 03:37:36;;;;;;;15.00;2.72;;;;;;;18.21;41.74;101779.25;5014448;28;20128;-58
2023/06/03 03:40:04;;;;;;;9.43;2.95;;;;;;;17.98;42.10;101752.59;5013110;28;20044;-57
2023/06/03 03:42:29;;;;;;;9.15;3.33;;;;;;;18.08;41.44;101779.63;5013914;28;20021;-58
2023/06/03 03:45:00;;;;;;;6.53;2.88;;;;;;;17.87;41.54;101744.69;5013407;28;20041;-57
2023/06/03 03:47:26;;;;;;;9.25;2.67;;;;;;;18.01;41.88;101773.97;5014284;28;20034;-57
2023/06/03 03:49:52;;;;;;;7.50;3.03;;;;;;;17.99;41.64;101781.41;5013836;28;20057;-58
2023/06/03 03:52:26;;;;;;;8.88;2.88;;;;;;;17.97;41.82;101782.56;5013025;28;20076;-58
2023/06/03 03:54:52;;;;;;;5.22;3.45;;;;;;;17.96;42.20;101787.13;5012841;28;20029;-57
2023/06/03 03:57:19;;;;;;;8.82;3.17;;;;;;;17.67;42.17;101731.44;5014060;28;20049;-58
2023/06/03 03:59:44;;;;;;;7.70;3.45;;;;;;;17.99;42.02;101791.41;5012795;28;20104;-57
2023/06/03 04:02:11;;;;;;;10.20;3.50;;;;;;;18.03;41.92;101792.81;5013881;28;20497;-57
2023/06/03 04:04:43;;;;;;;6.57;3.33;;;;;;;18.07;41.90;101787.91;5013809;28;20413;-57
2023/06/03 04:07:11;;;;;;;6.53;3.03;;;;;;;18.08;42.30;101787.78;5013973;28;20045;-58
2023/06/03 04:09:38;;;;;;;7.55;3.38;;;;;;;18.08;41.68;101792.34;5014286;28;20125;-58
2023/06/03 04:12:08;;;;;;;10.05;3.40;;;;;;;18.11;42.98;101792.03;5014699;28;20028;-57
2023/06/03 04:14:45;;;;;;;5.95;3.08;;;;;;;18.15;42.46;101796.13;5013314;28;20049;-57
2023/06/03 04:17:14;;;;;;;9.43;3.67;;;;;;;18.16;42.17;101782.44;5012761;28;20037;-58
2023/06/03 04:19:41;;;;;;;9.13;3.42;;;;;;;18.15;42.20;101774.44;5012306;28;20038;-57
2023/06/03 04:22:08;;;;;;;9.82;3.60;;;;;;;18.34;42.52;101796.00;5012207;28;20033;-58
2023/06/03 04:24:35;;;;;;;12.95;3.47;;;;;;;18.41;42.57;101788.94;5014133;28;20091;-57
2023/06/03 04:27:02;;;;;;;9.00;3.40;;;;;;;18.49;42.94;101786.31;5013657;28;20041;-57
2023/06/03 04:29:30;;;;;;;7.40;3.60;;;;;;;18.57;42.24;101787.22;5013585;28;20030;-58
2023/06/03 04:31:56;;;;;;;14.20;4.90;;;;;;;18.64;43.30;101792.88;5013519;28;20494;-58
2023/06/03 04:34:21;;;;;;;6.22;3.67;;;;;;;18.72;43.54;101784.81;5012418;28;20044;-58
2023/06/03 04:36:46;;;;;;;7.72;4.13;;;;;;;18.79;43.46;101791.28;5011873;28;20100;-58
2023/06/03 04:39:12;;;;;;;8.02;3.55;;;;;;;18.86;42.89;101786.94;5013840;28;20068;-58
2023/06/03 04:41:38;;;;;;;14.45;3.75;;;;;;;18.93;42.90;101788.00;5013174;28;20037;-57
2023/06/03 04:44:04;;;;;;;7.85;3.58;;;;;;;18.97;42.91;101794.81;5012469;28;20469;-59
2023/06/03 04:46:29;;;;;;;6.30;3.33;;;;;;;19.05;43.01;101792.16;5013764;28;20489;-57
2023/06/03 04:48:57;;;;;;;9.20;3.22;;;;;;;19.14;42.94;101791.19;5013246;28;20501;-58
2023/06/03 04:51:24;;;;;;;9.15;3.55;;;;;;;19.24;42.89;101801.94;5012507;28;20497;-58
2023/06/03 04:53:50;;;;;;;7.00;3.00;;;;;;;19.23;43.18;101775.78;5014253;28;20038;-58
2023/06/03 04:56:16;;;;;;;5.32;3.63;;;;;;;19.42;43.19;101793.75;5013076;28;20442;-58
2023/06/03 04:58:42;;;;;;;8.68;3.35;;;;;;;19.51;43.21;101792.78;5013254;28;20061;-58
2023/06/03 05:01:08;;;;;;;6.78;3.08;;;;;;;19.61;43.03;101796.19;5013017;28;20085;-58
2023/06/03 05:03:35;;;;;;;9.18;4.22;;;;;;;19.71;43.11;101794.19;5015642;28;20096;-58
2023/06/03 05:06:01;;;;;;;6.50;3.60;;;;;;;19.80;42.74;101798.63;5016009;28;20045;-58
2023/06/03 05:08:27;;;;;;;10.80;3.25;;;;;;;19.90;43.06;101796.66;5015853;28;20033;-59
2023/06/03 05:10:52;;;;;;;7.00;2.90;;;;;;;20.00;42.96;101794.63;5017095;28;20049;-58
2023/06/03 05:13:17;;;;;;;9.10;3.13;;;;;;;20.13;42.77;101792.25;5017078;28;20126;-57
2023/06/03 05:15:43;;;;;;;11.60;3.15;;;;;;;20.24;42.85;101804.69;5015987;28;20033;-58
2023/06/03 05:18:09;;;;;;;10.38;4.13;;;;;;;20.35;42.63;101798.13;5017421;28;20444;-58
2023/06/03 05:20:35;;;;;;;5.95;3.10;;;;;;;20.43;42.83;101789.94;5016800;28;20057;-58
2023/06/03 05:23:00;;;;;;;6.47;3.25;;;;;;;20.56;42.72;101791.13;5015375;28;20493;-58
2023/06/03 05:25:25;;;;;;;11.32;3.75;;;;;;;20.66;42.43;101790.97;5017850;28;20034;-60
2023/06/03 05:27:51;;;;;;;8.90;2.95;;;;;;;20.76;42.32;101792.50;5017149;28;20026;-58
2023/06/03 05:30:16;;;;;;;11.50;3.08;;;;;;;20.84;42.39;101788.91;5017491;28;20216;-57
2023/06/03 05:32:42;;;;;;;12.95;2.92;;;;;;;20.99;41.91;101798.06;5017567;28;20489;-57
2023/06/03 05:35:09;;;;;;;5.50;3.22;;;;;;;21.09;42.55;101789.72;5016451;28;20053;-57
2023/06/03 05:37:34;;;;;;;8.02;2.80;;;;;;;21.20;42.10;101792.94;5016399;28;20041;-58
2023/06/03 05:39:59;;;;;;;6.25;3.00;;;;;;;21.36;41.52;101789.31;5016772;28;20394;-58
2023/06/03 05:42:25;;;;;;;7.55;3.33;;;;;;;21.53;42.42;101793.66;5017204;28;20385;-58
2023/06/03 05:44:50;;;;;;;12.38;3.28;;;;;;;21.70;42.01;101787.13;5016382;28;20057;-58
2023/06/03 05:47:15;;;;;;;18.63;2.90;;;;;;;21.83;41.35;101786.56;5031558;28;20048;-56
2023/06/03 05:49:41;;;;;;;13.02;3.30;;;;;;;21.96;40.87;101792.28;5016491;28;20034;-56
2023/06/03 05:52:07;;;;;;;5.57;3.28;;;;;;;21.98;40.78;101768.41;5014897;28;20034;-56
2023/06/03 05:54:32;;;;;;;11.10;2.60;;;;;;;22.21;41.50;101785.66;5015571;28;20029;-56
2023/06/03 05:56:58;;;;;;;9.43;2.92;;;;;;;22.35;41.00;101787.59;5016086;28;20161;-56
2023/06/03 05:59:23;;;;;;;9.77;2.58;;;;;;;22.50;40.00;101795.84;5015854;28;20405;-56
2023/06/03 06:01:49;;;;;;;8.65;2.90;;;;;;;22.58;40.96;101788.41;5014744;28;20073;-56
2023/06/03 06:04:14;;;;;;;5.05;2.83;;;;;;;22.70;39.81;101794.31;5015077;28;20037;-56
2023/06/03 06:06:41;;;;;;;11.27;3.65;;;;;;;22.81;39.68;101795.78;5016880;28;20391;-56
2023/06/03 06:09:06;;;;;;;8.55;2.55;;;;;;;22.92;40.56;101796.16;5015006;28;20100;-56
2023/06/03 06:11:32;;;;;;;5.97;2.70;;;;;;;23.03;39.44;101794.88;5014711;28;20541;-56
2023/06/03 06:13:57;;;;;;;10.15;3.33;;;;;;;23.12;40.38;101791.84;5016146;28;20405;-56
2023/06/03 06:16:22;;;;;;;7.78;2.63;;;;;;;23.26;39.80;101792.03;5016855;28;20084;-56
2023/06/03 06:18:48;;;;;;;6.32;2.63;;;;;;;23.37;39.62;101795.16;5016150;28;20036;-56
2023/06/03 06:21:16;;;;;;;8.45;3.10;;;;;;;23.39;39.71;101782.19;5016579;28;20026;-56
2023/06/03 06:23:44;;;;;;;5.78;2.58;;;;;;;23.56;38.30;101793.78;5015484;28;20060;-56
2023/06/03 06:26:13;;;;;;;2.90;1.98;;;;;;;23.60;38.21;101801.41;5015631;28;20046;-56
2023/06/03 06:28:38;;;;;;;6.40;3.15;;;;;;;23.69;38.61;101802.13;5014348;28;20505;-57
2023/06/03 06:31:04;;;;;;;5.40;2.20;;;;;;;23.77;37.83;101791.94;5015457;28;20095;-56
2023/06/03 06:33:33;;;;;;;4.60;1.88;;;;;;;23.92;38.26;101799.28;5015661;28;20018;-56
2023/06/03 06:36:01;;;;;;;5.15;2.13;;;;;;;23.99;37.54;101801.03;5015098;28;20056;-56
2023/06/03 06:38:27;;;;;;;5.18;2.42;;;;;;;24.12;38.21;101801.19;5015555;28;20048;-56
2023/06/03 06:40:53;;;;;;;4.38;2.58;;;;;;;24.25;37.36;101797.78;5015345;28;20041;-56
2023/06/03 06:43:21;;;;;;;3.83;1.73;;;;;;;24.38;37.28;101789.69;5015050;28;20108;-56
2023/06/03 06:45:46;;;;;;;8.48;3.13;;;;;;;24.41;37.12;101774.75;5015287;28;20401;-56
2023/06/03 06:48:13;;;;;;;5.82;2.53;;;;;;;24.67;36.78;101786.81;4998345;28;20033;-63
2023/06/03 06:51:01;;;;;;;4.55;2.00;;;;;;;24.77;36.71;101794.66;5014186;28;20203;-58
2023/06/03 06:53:27;;;;;;;4.38;1.83;;;;;;;24.89;36.69;101788.50;5015135;28;20088;-58
2023/06/03 06:56:01;;;;;;;8.18;2.13;;;;;;;24.98;35.92;101782.84;5015143;28;20113;-57
2023/06/03 06:58:35;;;;;;;4.00;1.80;;;;;;;25.17;35.94;101784.88;5015106;28;20065;-57
2023/06/03 07:01:00;;;;;;;11.40;1.98;;;;;;;25.33;35.69;101788.13;5030161;28;20033;-57
2023/06/03 07:03:26;;;;;;;2.50;1.45;;;;;;;25.35;35.14;101760.50;5015062;28;20033;-57
2023/06/03 07:05:53;;;;;;;2.85;1.60;;;;;;;25.46;35.28;101762.69;5014845;28;20073;-57
2023/06/03 07:08:20;;;;;;;4.88;1.45;;;;;;;25.73;34.90;101786.47;5015115;28;20048;-57
2023/06/03 07:10:46;;;;;;;3.25;1.60;;;;;;;25.84;34.49;101794.13;5015318;28;20065;-58
2023/06/03 07:13:15;;;;;;;5.88;1.55;;;;;;;25.93;34.15;101795.66;5014829;28;20497;-57
2023/06/03 07:15:42;;;;;;;4.10;1.42;;;;;;;26.00;33.76;101787.41;5015024;28;20152;-58
2023/06/03 07:18:09;;;;;;;3.05;1.25;;;;;;;26.08;33.69;101786.34;5015482;28;20088;-57
2023/06/03 07:20:43;;;;;;;4.93;1.42;;;;;;;26.25;33.65;101795.94;5014999;28;20501;-55
2023/06/03 07:23:23;;;;;;;9.35;1.35;;;;;;;26.39;33.68;101783.91;5014866;28;20133;-56
2023/06/03 07:25:50;;;;;;;6.63;1.58;;;;;;;26.50;33.19;101791.53;5014665;28;20417;-55
2023/06/03 07:28:20;;;;;;;4.80;1.98;;;;;;;26.62;33.18;101792.63;5015233;28;20041;-57
2023/06/03 07:30:47;;;;;;;2.63;1.60;;;;;;;26.72;32.44;101792.22;5013478;28;20134;-57
2023/06/03 07:33:25;;;;;;;4.63;1.30;;;;;;;26.83;31.98;101788.84;5015245;28;20068;-56
2023/06/03 07:35:58;;;;;;;2.20;1.25;;;;;;;27.01;31.88;101781.63;5014335;28;20525;-57
2023/06/03 07:38:39;;;;;;;6.15;1.50;;;;;;;27.17;32.34;101786.69;5014666;28;20057;-56
2023/06/03 07:41:05;;;;;;;3.38;1.17;;;;;;;27.32;32.09;101782.84;5014795;28;20045;-56
2023/06/03 07:43:35;;;;;;;5.05;1.20;;;;;;;27.46;31.02;101787.28;5014691;28;20058;-57
2023/06/03 07:46:05;;;;;;;2.58;1.30;;;;;;;27.59;31.33;101781.72;5014232;28;20413;-56
2023/06/03 07:48:40;;;;;;;3.45;1.30;;;;;;;27.69;31.08;101782.13;5014959;28;20080;-57
2023/06/03 07:51:06;;;;;;;7.15;1.40;;;;;;;27.83;30.68;101786.50;5014565;28;20045;-57
2023/06/03 07:53:35;;;;;;;2.92;1.15;;;;;;;27.96;30.28;101783.69;5014459;28;20448;-57
2023/06/03 07:56:08;;;;;;;2.97;1.33;;;;;;;28.05;30.97;101779.63;5014316;28;20125;-57
2023/06/03 07:58:35;;;;;;;2.35;1.05;;;;;;;28.14;30.86;101774.72;5014555;28;20034;-57
2023/06/03 08:01:01;;;;;;;5.65;1.60;;;;;;;28.14;30.52;101767.25;5014454;28;20030;-57
2023/06/03 08:03:26;;;;;;;4.60;1.55;;;;;;;28.34;29.98;101774.56;4996899;28;20084;-57
2023/06/03 08:05:52;;;;;;;3.42;1.50;;;;;;;28.41;29.95;101761.56;5014040;28;20061;-57
2023/06/03 08:08:18;;;;;;;1.80;1.15;;;;;;;28.55;29.94;101769.53;5014266;28;20114;-57
2023/06/03 08:10:47;;;;;;;4.35;1.05;;;;;;;28.69;29.83;101775.81;5014033;28;20121;-57
2023/06/03 08:13:13;;;;;;;3.13;1.33;;;;;;;28.83;29.45;101775.47;5030938;28;20111;-57
2023/06/03 08:15:40;;;;;;;6.38;1.60;;;;;;;28.98;29.28;101775.09;5033734;28;20034;-57
2023/06/03 08:18:09;;;;;;;3.95;1.13;;;;;;;29.09;29.72;101760.53;5034247;28;20034;-57
2023/06/03 08:20:36;;;;;;;3.75;1.00;;;;;;;29.28;29.74;101769.75;5033580;28;20037;-57
2023/06/03 08:23:02;;;;;;;1.75;0.90;;;;;;;29.40;28.91;101768.72;5033481;28;20524;-57
2023/06/03 08:25:27;;;;;;;3.45;1.00;;;;;;;29.42;28.61;101744.50;5033313;28;20037;-57
2023/06/03 08:27:53;;;;;;;4.15;1.17;;;;;;;29.68;27.92;101761.78;5015852;28;20025;-57
2023/06/03 08:30:20;;;;;;;5.80;0.93;;;;;;;29.77;27.76;101757.66;5033916;28;20029;-57
2023/06/03 08:32:46;;;;;;;3.40;1.17;;;;;;;29.85;28.02;101760.13;5033538;28;20037;-57
2023/06/03 08:35:13;;;;;;;1.10;0.98;;;;;;;29.94;28.33;101753.19;5033375;28;20119;-57
2023/06/03 08:37:39;;;;;;;3.65;1.15;;;;;;;30.02;28.01;101755.63;5031333;28;20061;-57
2023/06/03 08:40:11;;;;;;;5.75;1.80;;;;;;;30.10;27.76;101758.06;5033238;28;20092;-57
2023/06/03 08:42:43;;;;;;;4.10;1.52;;;;;;;30.25;27.73;101755.72;5033148;28;20477;-58
2023/06/03 08:45:10;;;;;;;2.95;1.30;;;;;;;30.39;27.11;101751.69;5033912;28;20075;-57
2023/06/03 08:47:59;;;;;;;2.83;1.85;;;;;;;30.55;27.45;101750.13;5033511;28;20061;-57
2023/06/03 08:50:26;;;;;;;2.80;1.08;;;;;;;30.72;27.30;101744.75;5032062;28;20044;-57
2023/06/03 08:52:52;;;;;;;2.85;0.88;;;;;;;30.81;27.18;101743.31;5033107;28;20034;-57
2023/06/03 08:55:18;;;;;;;4.20;1.13;;;;;;;30.94;27.09;101743.09;5031909;28;20072;-58
2023/06/03 08:58:01;;;;;;;2.65;1.00;;;;;;;30.98;26.79;101739.63;5033391;28;20049;-57
2023/06/03 09:00:27;;;;;;;2.30;1.10;;;;;;;31.04;26.96;101751.66;5033315;28;20499;-57
2023/06/03 09:02:52;;;;;;;4.20;1.23;;;;;;;31.12;26.56;101754.03;5031798;28;20037;-57
2023/06/03 09:05:22;;;;;;;2.42;1.00;;;;;;;31.24;26.15;101749.31;5033132;28;20048;-57
2023/06/03 09:07:50;;;;;;;4.18;1.00;;;;;;;31.35;26.47;101740.16;5033268;28;20056;-57
2023/06/03 09:10:16;;;;;;;3.25;1.15;;;;;;;31.48;26.12;101745.47;5032997;28;20527;-57
2023/06/03 09:12:46;;;;;;;3.50;1.10;;;;;;;31.41;25.52;101727.28;5032707;28;20497;-57
2023/06/03 09:15:15;;;;;;;2.80;0.90;;;;;;;31.69;25.93;101752.25;5033359;28;20056;-57
2023/06/03 09:17:44;;;;;;;1.02;0.90;;;;;;;31.83;25.34;101759.19;5032870;28;20044;-58
2023/06/03 09:20:11;;;;;;;3.90;1.15;;;;;;;31.95;25.41;101759.16;5032965;28;20052;-57
2023/06/03 09:22:38;;;;;;;2.63;1.17;;;;;;;31.98;25.51;101761.44;5048085;28;20057;-57
2023/06/03 09:25:04;;;;;;;2.25;0.90;;;;;;;32.00;24.86;101759.22;5032712;28;20069;-58
2023/06/03 09:27:30;;;;;;;2.78;1.40;;;;;;;32.09;24.97;101763.34;5032801;28;20064;-58
2023/06/03 09:29:56;;;;;;;4.20;1.38;;;;;;;32.16;24.61;101744.63;5032396;28;20059;-57
2023/06/03 09:32:22;;;;;;;2.83;1.35;;;;;;;32.31;24.55;101755.97;5032537;28;20118;-58
2023/06/03 09:34:48;;;;;;;3.85;1.52;;;;;;;32.38;24.01;101759.44;5032403;28;20080;-58
2023/06/03 09:37:14;;;;;;;2.95;0.80;;;;;;;32.46;24.77;101753.47;5032641;28;20111;-58
2023/06/03 09:39:40;;;;;;;5.95;1.60;;;;;;;32.57;24.61;101751.75;5047868;28;20486;-58
2023/06/03 09:42:06;;;;;;;2.28;0.80;;;;;;;32.71;23.84;101755.88;5033482;28;20052;-58
2023/06/03 09:44:39;;;;;;;3.47;1.10;;;;;;;32.80;23.83;101755.16;5032359;28;20421;-58
2023/06/03 09:47:05;;;;;;;5.53;1.02;;;;;;;32.81;24.46;101751.31;5032495;28;20155;-58
2023/06/03 09:49:30;;;;;;;3.60;1.02;;;;;;;32.79;23.82;101747.94;5035479;28;20425;-58
2023/06/03 09:51:55;;;;;;;4.05;1.27;;;;;;;32.73;23.92;101759.22;5035011;28;20045;-58
2023/06/03 09:54:25;;;;;;;2.58;1.15;;;;;;;32.76;23.95;101754.00;5035236;28;20049;-58
2023/06/03 09:56:51;;;;;;;2.03;0.88;;;;;;;32.83;23.57;101746.31;5036205;28;20037;-58
2023/06/03 09:59:16;;;;;;;5.55;1.33;;;;;;;32.92;23.24;101762.56;5036511;28;20485;-58
2023/06/03 10:01:45;;;;;;;3.85;1.23;;;;;;;32.85;23.49;101732.22;5036196;28;20089;-58
2023/06/03 10:04:11;;;;;;;3.65;1.00;;;;;;;33.12;23.88;101760.13;5036227;28;20520;-58
2023/06/03 10:06:38;;;;;;;1.33;0.88;;;;;;;33.04;23.70;101733.59;5035125;28;20021;-58
2023/06/03 10:09:25;;;;;;;3.58;1.00;;;;;;;33.15;22.79;101731.81;5036668;28;20022;-58
2023/06/03 10:11:52;;;;;;;3.30;1.02;;;;;;;33.35;22.96;101748.78;5036020;28;20029;-58
2023/06/03 10:14:27;;;;;;;1.23;0.90;;;;;;;33.41;23.32;101744.97;5036051;28;20025;-58
2023/06/03 10:17:02;;;;;;;5.30;1.40;;;;;;;33.45;22.85;101745.31;5036005;28;20516;-58
2023/06/03 10:19:28;;;;;;;5.90;0.90;;;;;;;33.51;23.27;101750.66;5035798;28;20037;-58
2023/06/03 10:21:54;;;;;;;2.70;1.05;;;;;;;33.55;22.16;101740.72;5036115;28;20495;-58
2023/06/03 10:24:20;;;;;;;3.45;1.40;;;;;;;33.64;21.71;101743.91;5035183;28;20032;-58
2023/06/03 10:26:47;;;;;;;5.30;1.00;;;;;;;33.68;22.01;101734.78;5034614;28;20037;-58
2023/06/03 10:29:14;;;;;;;4.50;1.40;;;;;;;33.82;23.07;101727.72;5034880;28;20408;-58
2023/06/03 10:31:40;;;;;;;3.92;1.42;;;;;;;33.98;22.04;101718.41;5036302;28;20045;-58
2023/06/03 10:34:06;;;;;;;1.20;0.90;;;;;;;34.18;22.75;101728.94;5018450;28;20034;-59
2023/06/03 10:36:32;;;;;;;2.20;1.08;;;;;;;34.27;22.51;101737.66;5036356;28;20109;-58
2023/06/03 10:39:01;;;;;;;2.83;1.13;;;;;;;34.40;22.18;101731.63;5034362;28;20033;-58
2023/06/03 10:41:30;;;;;;;12.07;1.58;;;;;;;34.59;22.43;101730.19;5034231;28;20037;-58
2023/06/03 10:43:55;;;;;;;4.38;1.73;;;;;;;34.71;22.60;101727.19;5035262;28;20044;-58
2023/06/03 10:46:21;;;;;;;2.03;0.80;;;;;;;34.87;22.00;101740.13;5034243;28;20037;-63
2023/06/03 10:48:46;;;;;;;3.97;1.25;;;;;;;35.00;22.11;101732.13;5034468;28;20021;-58
2023/06/03 10:51:20;;;;;;;2.90;1.35;;;;;;;35.22;21.74;101729.22;5035613;28;20404;-58
2023/06/03 10:54:25;;;;;;;2.00;1.10;;;;;;;35.40;21.75;101736.28;5034614;28;20038;-58
2023/06/03 10:56:55;;;;;;;2.58;1.27;;;;;;;35.50;21.65;101741.88;5035215;28;20098;-58
2023/06/03 10:59:24;;;;;;;3.47;1.90;;;;;;;35.40;22.08;101725.13;5035028;28;20034;-59
2023/06/03 11:02:02;;;;;;;4.13;1.27;;;;;;;35.63;21.27;101735.81;5033501;28;20132;-58
2023/06/03 11:04:30;;;;;;;2.90;1.00;;;;;;;35.75;21.30;101736.44;5032358;28;20037;-58
2023/06/03 11:06:56;;;;;;;6.35;1.10;;;;;;;35.92;21.24;101736.19;5042417;28;20053;-58
2023/06/03 11:09:34;;;;;;;1.10;0.93;;;;;;;36.10;21.28;101744.88;5035578;28;20052;-58
2023/06/03 11:12:13;;;;;;;3.72;1.30;;;;;;;36.22;21.05;101737.09;5034590;28;20112;-59
2023/06/03 11:14:42;;;;;;;3.85;1.20;;;;;;;36.20;20.93;101736.56;5034892;28;20042;-58
2023/06/03 11:17:12;;;;;;;2.97;1.25;;;;;;;36.31;20.92;101730.97;5035028;28;20113;-58
2023/06/03 11:19:40;;;;;;;5.18;0.95;;;;;;;36.28;20.80;101737.94;5034824;28;20129;-58
2023/06/03 11:22:09;;;;;;;2.22;1.05;;;;;;;36.36;20.46;101728.16;5034909;28;20409;-58
2023/06/03 11:24:38;;;;;;;4.55;1.15;;;;;;;36.59;20.59;101730.44;5034129;28;20397;-59
2023/06/03 11:27:09;;;;;;;3.20;1.00;;;;;;;36.82;20.30;101721.47;5033626;28;20160;-59